Weather History for Frankfort, MI

Change the Weather History Date:

Tuesday, December 10, 2013

  Actual Average (KTVC) Record (KTVC)
Temperature  
Mean Temperature 14 °F 28 °F  
Max Temperature 20 °F 34 °F 54 °F (1971)
Min Temperature 10 °F 23 °F -6 °F (1919)
Degree Days  
Heating Degree Days 50 37  
Month to date heating degree days 353  
Since 1 July heating degree days 1972  
Moisture  
Dew Point 9 °F    
Average Humidity 77    
Maximum Humidity 89    
Minimum Humidity 69    
Precipitation  
Precipitation 0.00 in 0.08 in 1.46 in (1971)
Month to date precipitation 0.81  
Year to date precipitation 31.37  
Sea Level Pressure  
Sea Level Pressure 29.95 in    
Wind  
Wind Speed 12 mph (West)    
Max Wind Speed 20 mph    
Max Gust Speed 32 mph    
Visibility 6 miles    
Events Snow    
T = Trace of Precipitation, MM = Missing Value Source: NWS Daily Summary

Daily Weather History Graph

Daily Weather History Graph

Search for Another Location

Airport:

Trip Planner

Search our weather history database for the weather conditions in past years. The results will help you decide how hot, cold, wet, or windy it might be!

Date:

Astronomy

Dec. 10, 2013 Rise Set
Actual Time 8:10 AM EST 5:04 PM EST
Civil Twilight 7:37 AM EST 5:37 PM EST
Nautical Twilight 7:00 AM EST 6:14 PM EST
Astronomical Twilight 6:25 AM EST 6:50 PM EST
Moon 1:18 PM EST (12/10) 1:14 AM EST (12/10)
Length of Visible Light 10h 00m
Length of Day
8h 53m
First Quarter, 61% of the Moon is Illuminated
Dec 10
First Quarter
Dec 17
Full
Dec 25
Last Quarter
Jan 1
New
Jan 7
First Quarter

Hourly Weather History & Observations

Time (EST) Temp. Windchill Dew Point Humidity Pressure Visibility Wind Dir Wind Speed Gust Speed Precip Events Conditions
12:16 AM 10.8 °F -5.6 °F 4.8 °F 77% 30.04 in 4.0 mi WNW 15.0 mph 21.9 mph N/A Snow Light Snow
12:36 AM 11.1 °F -4.5 °F 5.7 °F 79% 30.05 in 4.0 mi WNW 13.8 mph 19.6 mph N/A Snow Light Snow
12:56 AM 10.9 °F -4.1 °F 4.8 °F 76% 30.04 in 5.0 mi West 12.7 mph 21.9 mph N/A Snow Light Snow
1:16 AM 11.3 °F -4.9 °F 5.4 °F 77% 30.05 in 4.0 mi WNW 15.0 mph 20.7 mph N/A Snow Light Snow
1:36 AM 11.3 °F -3.6 °F 5.5 °F 78% 30.04 in 4.0 mi West 12.7 mph 24.2 mph N/A Snow Light Snow
1:53 AM 11.1 °F -3.9 °F 5.2 °F 77% 30.04 in 5.0 mi West 12.7 mph 21.9 mph N/A Snow Light Snow
2:13 AM 11.3 °F -4.9 °F 5.0 °F 76% 30.04 in 7.0 mi WNW 15.0 mph 20.7 mph N/A Snow Light Snow
2:33 AM 11.3 °F -1.3 °F 5.7 °F 78% 30.04 in 3.0 mi West 9.2 mph 18.4 mph N/A Snow Light Snow
2:53 AM 11.3 °F -1.3 °F 5.5 °F 78% 30.03 in 5.0 mi West 9.2 mph 18.4 mph N/A Snow Light Snow
3:14 AM 11.3 °F -2.2 °F 4.8 °F 75% 30.03 in 7.0 mi West 10.4 mph 18.4 mph N/A Snow Light Snow
3:34 AM 11.8 °F -3.0 °F 5.9 °F 77% 30.03 in 5.0 mi WSW 12.7 mph 19.6 mph N/A Snow Light Snow
3:54 AM 11.8 °F -0.7 °F 5.4 °F 75% 30.02 in 5.0 mi West 9.2 mph 16.1 mph N/A Snow Light Snow
4:14 AM 12.0 °F -1.3 °F 5.7 °F 76% 30.01 in 5.0 mi West 10.4 mph 18.4 mph N/A Snow Light Snow
4:34 AM 12.0 °F 0.5 °F 6.1 °F 77% 30.00 in 4.0 mi West 8.1 mph - N/A Snow Light Snow
4:54 AM 12.4 °F -2.9 °F 7.0 °F 79% 29.99 in 4.0 mi West 13.8 mph 20.7 mph N/A Snow Light Snow
5:14 AM 12.6 °F 0.2 °F 6.4 °F 77% 29.98 in 4.0 mi WSW 9.2 mph - N/A Snow Light Snow
5:35 AM 12.2 °F -1.0 °F 6.8 °F 79% 29.96 in 3.0 mi West 10.4 mph - N/A Snow Light Snow
5:55 AM 12.2 °F -0.2 °F 6.8 °F 79% 29.95 in 5.0 mi WSW 9.2 mph - N/A Snow Light Snow
6:15 AM 12.7 °F -1.8 °F 6.1 °F 75% 29.95 in 10.0 mi SW 12.7 mph 18.4 mph N/A Snow Light Snow
6:35 AM 13.1 °F 0.1 °F 6.8 °F 76% 29.93 in 10.0 mi SW 10.4 mph - N/A Snow Light Snow
6:55 AM 13.6 °F 1.6 °F 6.8 °F 74% 29.92 in 10.0 mi SSW 9.2 mph - N/A   Overcast
7:15 AM 14.0 °F 5.1 °F 7.5 °F 75% 29.91 in 10.0 mi SW 5.8 mph - N/A   Overcast
7:35 AM 15.1 °F 2.5 °F 8.6 °F 76% 29.90 in 10.0 mi SW 10.4 mph 16.1 mph N/A   Overcast
7:56 AM 15.8 °F 3.4 °F 8.6 °F 73% 29.88 in 10.0 mi SW 10.4 mph - N/A   Overcast
8:16 AM 16.7 °F 5.3 °F 9.3 °F 73% 29.87 in 10.0 mi SSW 9.2 mph 21.9 mph N/A   Overcast
8:36 AM 16.5 °F 5.1 °F 9.3 °F 73% 29.85 in 10.0 mi SSE 9.2 mph 18.4 mph N/A Snow Light Snow
8:56 AM 13.5 °F 0.5 °F 9.1 °F 83% 29.85 in 2.0 mi SSE 10.4 mph - N/A Snow Light Snow
9:16 AM 12.7 °F 0.4 °F 9.5 °F 87% 29.85 in 0.5 mi SSE 9.2 mph - N/A Snow Snow
9:36 AM 12.9 °F 0.7 °F 9.9 °F 88% 29.84 in 0.5 mi SE 9.2 mph - N/A Snow Snow
9:56 AM 13.1 °F 5.4 °F 10.2 °F 88% 29.83 in 0.8 mi SSW 4.6 mph - N/A Snow Light Snow
10:11 AM 13.8 °F 4.9 °F 10.9 °F 88% 29.82 in 0.8 mi SSE 5.8 mph - N/A Snow Light Snow
10:31 AM 15.6 °F 3.2 °F 11.7 °F 84% 29.81 in 0.8 mi SSE 10.4 mph 19.6 mph N/A Snow Light Snow
10:51 AM 19.9 °F 6.2 °F 17.1 °F 89% 29.80 in 0.2 mi West 15.0 mph 26.5 mph N/A Snow Snow
11:12 AM 18.5 °F 2.4 °F 14.0 °F 83% 29.80 in 1.0 mi WSW 19.6 mph 32.2 mph N/A Snow Light Snow
11:32 AM 17.1 °F 1.5 °F 12.9 °F 84% 29.80 in 0.8 mi West 17.3 mph 26.5 mph N/A Snow Light Snow
11:52 AM 16.2 °F 3.2 °F 11.5 °F 82% 29.80 in 1.2 mi West 11.5 mph 23.0 mph N/A Snow Light Snow
12:12 PM 15.6 °F 2.5 °F 10.9 °F 82% 29.82 in 1.0 mi West 11.5 mph 25.3 mph N/A Snow Light Snow
12:32 PM 15.3 °F 1.4 °F 9.9 °F 79% 29.82 in 1.5 mi West 12.7 mph 19.6 mph N/A Snow Light Snow
12:52 PM 15.3 °F 5.4 °F 9.7 °F 79% 29.82 in 1.8 mi West 6.9 mph 23.0 mph N/A Snow Light Snow
1:12 PM 14.9 °F 4.0 °F 10.2 °F 82% 29.82 in 1.2 mi West 8.1 mph 20.7 mph N/A Snow Light Snow
1:32 PM 14.9 °F -0.3 °F 9.7 °F 80% 29.82 in 1.2 mi West 15.0 mph - N/A Snow Light Snow
1:52 PM 15.3 °F 2.0 °F 10.0 °F 80% 29.82 in 2.0 mi West 11.5 mph 18.4 mph N/A Snow Light Snow
2:12 PM 15.4 °F 3.0 °F 9.3 °F 77% 29.83 in 2.0 mi West 10.4 mph 16.1 mph N/A Snow Light Snow
2:32 PM 15.6 °F 1.2 °F 10.4 °F 80% 29.84 in 1.5 mi West 13.8 mph 23.0 mph N/A Snow Light Snow
2:53 PM 15.6 °F 2.5 °F 9.5 °F 77% 29.86 in 3.0 mi West 11.5 mph 24.2 mph N/A Snow Light Snow
3:13 PM 15.6 °F 1.2 °F 9.1 °F 76% 29.87 in 2.5 mi West 13.8 mph 26.5 mph N/A Snow Light Snow
3:33 PM 15.6 °F 1.2 °F 9.0 °F 75% 29.88 in 4.0 mi West 13.8 mph 23.0 mph N/A Snow Light Snow
3:53 PM 15.3 °F -1.8 °F 8.8 °F 76% 29.90 in 2.5 mi WNW 19.6 mph 28.8 mph N/A Snow Light Snow
4:13 PM 15.3 °F 2.0 °F 8.8 °F 76% 29.91 in 2.5 mi West 11.5 mph 17.3 mph N/A Snow Light Snow
4:33 PM 15.6 °F 0.1 °F 8.6 °F 74% 29.92 in 5.0 mi West 16.1 mph 21.9 mph N/A Snow Light Snow
4:53 PM 15.8 °F 2.7 °F 9.0 °F 74% 29.94 in 5.0 mi WNW 11.5 mph 20.7 mph N/A Snow Light Snow
5:14 PM 16.5 °F 3.6 °F 9.3 °F 73% 29.95 in 10.0 mi West 11.5 mph 18.4 mph N/A Snow Light Snow
5:34 PM 16.7 °F 2.6 °F 9.1 °F 72% 29.97 in 10.0 mi WNW 13.8 mph 20.7 mph N/A   Overcast
5:54 PM 17.2 °F 4.5 °F 9.1 °F 71% 29.97 in 10.0 mi WNW 11.5 mph 20.7 mph N/A   Overcast
6:14 PM 17.6 °F 3.7 °F 10.0 °F 72% 29.98 in 10.0 mi WNW 13.8 mph 24.2 mph N/A   Overcast
6:34 PM 17.4 °F 4.1 °F 9.0 °F 69% 29.98 in 10.0 mi WNW 12.7 mph 25.3 mph N/A Snow Light Snow
6:54 PM 17.4 °F 6.2 °F 9.5 °F 71% 29.98 in 10.0 mi West 9.2 mph 18.4 mph N/A   Overcast
7:14 PM 17.6 °F 5.0 °F 10.0 °F 72% 29.99 in 10.0 mi WNW 11.5 mph 18.4 mph N/A   Overcast
7:34 PM 17.6 °F 2.7 °F 9.5 °F 71% 30.00 in 10.0 mi West 16.1 mph 24.2 mph N/A   Overcast
7:54 PM 17.4 °F 1.9 °F 9.1 °F 70% 30.00 in 10.0 mi WNW 17.3 mph 25.3 mph N/A   Overcast
8:14 PM 17.4 °F 1.9 °F 9.5 °F 71% 30.01 in 10.0 mi WNW 17.3 mph 24.2 mph N/A   Overcast
8:34 PM 17.1 °F 1.0 °F 9.3 °F 72% 30.01 in 10.0 mi WNW 18.4 mph 24.2 mph N/A   Overcast
8:55 PM 16.9 °F 3.4 °F 9.7 °F 73% 30.03 in 10.0 mi West 12.7 mph 17.3 mph N/A   Overcast
9:15 PM 16.7 °F 1.5 °F 9.3 °F 73% 30.05 in 10.0 mi WNW 16.1 mph 23.0 mph N/A   Overcast
9:35 PM 16.7 °F 2.6 °F 9.0 °F 72% 30.06 in 10.0 mi West 13.8 mph 20.7 mph N/A   Overcast
9:55 PM 16.3 °F 1.0 °F 8.4 °F 71% 30.08 in 10.0 mi West 16.1 mph 24.2 mph N/A   Overcast
10:15 PM 15.8 °F 0.3 °F 8.8 °F 74% 30.08 in 10.0 mi West 16.1 mph 21.9 mph N/A   Overcast
10:35 PM 15.3 °F 0.2 °F 7.9 °F 73% 30.10 in 10.0 mi West 15.0 mph 23.0 mph N/A   Overcast
10:55 PM 14.9 °F 0.9 °F 7.9 °F 74% 30.10 in 10.0 mi West 12.7 mph 23.0 mph N/A   Overcast
11:15 PM 14.9 °F -1.3 °F 8.4 °F 76% 30.11 in 10.0 mi West 17.3 mph 23.0 mph N/A   Overcast
11:35 PM 14.7 °F 0.1 °F 7.7 °F 74% 30.12 in 10.0 mi West 13.8 mph 24.2 mph N/A   Overcast
11:56 PM 14.7 °F 0.7 °F 8.2 °F 75% 30.12 in 10.0 mi WNW 12.7 mph 23.0 mph N/A Snow Light Snow